Time;durP1;ratioP1;P1;durP2;ratioP2;P2;SDS_P1;SDS_P2;PMS_P1;PMS_P2;Temp;Humidity;BMP_temperature;BMP_pressure;BME280_temperature;BME280_humidity;BME280_pressure;Samples;Min_cycle;Max_cycle;Signal;HPM_P1;HPM_P2
2022/05/21 00:01:19;;;;;;;4.10;2.92;;;;;;;14.39;81.43;98677.00;4187443;28;20112;-72
2022/05/21 00:03:19;;;;;;;3.20;2.90;;;;;;;14.39;80.59;98671.44;4187530;28;20081;-71
2022/05/21 00:05:22;;;;;;;4.65;3.15;;;;;;;14.31;81.19;98692.94;4187417;28;20028;-71
2022/05/21 00:07:22;;;;;;;4.63;3.60;;;;;;;14.25;81.26;98690.94;4187328;28;20075;-71
2022/05/21 00:09:24;;;;;;;5.85;3.30;;;;;;;14.28;80.25;98684.56;4186997;28;20457;-71
2022/05/21 00:11:24;;;;;;;6.32;3.13;;;;;;;14.28;80.90;98693.72;4187745;28;20025;-71
2022/05/21 00:13:25;;;;;;;4.88;3.72;;;;;;;14.29;81.04;98691.72;4202720;28;20191;-71
2022/05/21 00:15:29;;;;;;;6.10;3.45;;;;;;;14.17;81.82;98692.94;4201693;28;20028;-71
2022/05/21 00:17:29;;;;;;;4.40;3.78;;;;;;;14.11;82.19;98694.50;4202308;28;20059;-71
2022/05/21 00:19:29;;;;;;;4.30;3.22;;;;;;;14.14;81.06;98687.34;4201400;28;20036;-71
2022/05/21 00:21:30;;;;;;;5.18;3.35;;;;;;;14.11;81.06;98683.38;4200564;28;20715;-71
2022/05/21 00:23:33;;;;;;;4.40;3.30;;;;;;;13.99;79.13;98684.56;4202252;28;20132;-71
2022/05/21 00:25:33;;;;;;;4.45;3.80;;;;;;;13.95;79.38;98672.63;4202601;28;20388;-71
2022/05/21 00:27:33;;;;;;;3.20;2.90;;;;;;;13.95;77.36;98682.97;4201865;28;20031;-71
2022/05/21 00:29:34;;;;;;;4.03;3.40;;;;;;;13.92;78.28;98697.69;4201249;28;20031;-71
2022/05/21 00:31:36;;;;;;;4.45;2.97;;;;;;;13.89;78.88;98690.91;4191560;28;20111;-71
2022/05/21 00:33:37;;;;;;;3.60;2.97;;;;;;;13.85;78.51;98703.22;4192419;28;20036;-71
2022/05/21 00:35:37;;;;;;;4.93;3.17;;;;;;;13.81;79.75;98694.84;4193422;28;20033;-71
2022/05/21 00:37:38;;;;;;;4.03;2.90;;;;;;;13.74;80.48;98703.22;4186657;28;20370;-71
2022/05/21 00:39:38;;;;;;;5.30;3.47;;;;;;;13.70;81.60;98705.16;4186566;28;20520;-71
2022/05/21 00:41:39;;;;;;;4.80;3.20;;;;;;;13.75;82.30;98713.94;4186784;28;20112;-71
2022/05/21 00:43:42;;;;;;;4.10;3.55;;;;;;;13.68;82.08;98713.91;4186951;28;20032;-71
2022/05/21 00:45:42;;;;;;;5.60;3.78;;;;;;;13.62;83.12;98712.69;4195167;28;20066;-71
2022/05/21 00:47:42;;;;;;;6.15;3.60;;;;;;;13.62;83.77;98714.69;4202985;28;20031;-71
2022/05/21 00:49:44;;;;;;;6.38;3.78;;;;;;;13.60;82.99;98725.41;4200645;28;20032;-71
2022/05/21 00:51:57;;;;;;;4.57;3.42;;;;;;;13.63;80.68;98722.63;4185217;28;20574;-71
2022/05/21 00:54:01;;;;;;;7.45;4.05;;;;;;;13.57;82.14;98732.56;4186805;28;20113;-71
2022/05/21 00:56:02;;;;;;;6.03;3.97;;;;;;;13.56;82.73;98728.16;4186861;28;20079;-71
2022/05/21 01:00:29;;;;;;;3.90;3.40;;;;;;;13.54;83.12;98729.75;4186971;28;20065;-71
2022/05/21 01:02:39;;;;;;;4.13;3.08;;;;;;;13.53;83.04;98742.06;4187159;28;20487;-71
2022/05/21 01:04:40;;;;;;;4.03;3.60;;;;;;;13.43;83.65;98730.50;4187097;28;20484;-71
2022/05/21 01:06:40;;;;;;;4.13;3.40;;;;;;;13.44;82.44;98734.88;4186198;28;20089;-71
2022/05/21 01:08:41;;;;;;;5.53;3.50;;;;;;;13.45;81.07;98730.09;4195636;28;20032;-71
2022/05/21 01:10:48;;;;;;;4.20;3.50;;;;;;;13.42;81.83;98722.56;4187357;28;20480;-71
2022/05/21 01:12:52;;;;;;;3.88;3.42;;;;;;;13.39;82.57;98734.44;4186554;28;20046;-71
2022/05/21 01:14:56;;;;;;;5.72;3.67;;;;;;;13.37;82.87;98747.94;4186100;28;20036;-71
2022/05/21 01:16:56;;;;;;;4.82;3.20;;;;;;;13.32;80.58;98732.44;4186957;28;20082;-72
2022/05/21 01:18:57;;;;;;;6.32;3.17;;;;;;;13.25;80.46;98740.75;4185634;28;20082;-71
2022/05/21 01:20:59;;;;;;;6.93;2.72;;;;;;;13.16;80.58;98752.19;4186456;28;20060;-71
2022/05/21 01:22:59;;;;;;;4.80;2.67;;;;;;;13.10;80.39;98752.94;4185804;28;20041;-71
2022/05/21 01:25:00;;;;;;;4.53;2.90;;;;;;;13.04;80.40;98738.59;4186759;28;20039;-71
2022/05/21 01:27:00;;;;;;;4.22;2.72;;;;;;;12.94;81.72;98756.81;4186622;28;20028;-71
2022/05/21 01:29:07;;;;;;;4.55;2.60;;;;;;;12.80;81.54;98753.94;4184065;28;20164;-71
2022/05/21 01:31:08;;;;;;;3.83;2.53;;;;;;;12.75;82.18;98751.53;4188622;28;20109;-71
2022/05/21 01:33:12;;;;;;;4.15;2.50;;;;;;;12.65;82.54;98753.03;4191581;28;20419;-71
2022/05/21 01:35:13;;;;;;;4.15;2.63;;;;;;;12.65;82.49;98761.34;4192513;28;20154;-71
2022/05/21 01:37:14;;;;;;;5.38;2.50;;;;;;;12.53;82.92;98767.22;4190149;28;20036;-71
2022/05/21 01:39:15;;;;;;;3.50;2.42;;;;;;;12.50;83.07;98762.44;4192593;28;20043;-71
2022/05/21 01:41:15;;;;;;;2.35;2.15;;;;;;;12.42;83.29;98780.22;4190864;28;20419;-71
2022/05/21 01:45:36;;;;;;;4.32;2.30;;;;;;;12.36;82.31;98779.75;4189955;28;20094;-71
2022/05/21 01:47:41;;;;;;;2.70;2.20;;;;;;;12.32;83.11;98776.13;4189037;28;20036;-72
2022/05/21 01:49:43;;;;;;;3.67;2.75;;;;;;;12.33;82.43;98791.63;4187752;28;20035;-71
2022/05/21 01:51:43;;;;;;;3.45;2.42;;;;;;;12.29;82.26;98787.22;4188766;28;20183;-71
2022/05/21 01:53:44;;;;;;;2.90;2.40;;;;;;;12.28;82.76;98771.75;4188577;28;20402;-72
2022/05/21 01:55:45;;;;;;;1.92;1.73;;;;;;;12.33;81.87;98785.28;4188451;28;20036;-71
2022/05/21 01:57:45;;;;;;;2.40;2.20;;;;;;;12.23;82.85;98789.53;4188755;28;20075;-71
2022/05/21 01:59:46;;;;;;;4.07;2.50;;;;;;;12.18;83.08;98787.13;4189648;28;20511;-71
2022/05/21 02:01:48;;;;;;;2.53;2.08;;;;;;;12.20;82.98;98793.06;4189087;28;20028;-71
2022/05/21 02:03:48;;;;;;;2.13;1.80;;;;;;;12.20;83.05;98803.38;4188545;28;20028;-71
2022/05/21 02:05:49;;;;;;;3.42;2.28;;;;;;;12.15;83.08;98793.41;4188537;28;20040;-71
2022/05/21 02:07:49;;;;;;;3.17;2.15;;;;;;;12.20;82.06;98809.72;4188497;28;20303;-71
2022/05/21 02:09:49;;;;;;;7.05;2.20;;;;;;;12.23;82.15;98802.59;4185439;28;20036;-71
2022/05/21 02:11:50;;;;;;;4.05;2.10;;;;;;;12.22;82.20;98814.88;4190394;28;20079;-71
2022/05/21 02:13:50;;;;;;;3.88;2.20;;;;;;;12.22;81.35;98815.66;4189047;28;20125;-71
2022/05/21 02:15:52;;;;;;;4.32;2.33;;;;;;;12.28;81.39;98830.81;4188338;28;20684;-71
2022/05/21 02:17:52;;;;;;;3.70;2.47;;;;;;;12.32;80.33;98817.75;4189746;28;20028;-71
2022/05/21 02:19:52;;;;;;;2.97;2.40;;;;;;;12.30;80.46;98820.13;4187629;28;20669;-71
2022/05/21 02:21:56;;;;;;;2.83;2.47;;;;;;;12.32;80.74;98839.16;4188362;28;20108;-71
2022/05/21 02:23:57;;;;;;;2.85;2.40;;;;;;;12.38;79.92;98843.97;4188604;28;20843;-71
2022/05/21 02:25:59;;;;;;;4.15;2.67;;;;;;;12.33;80.30;98840.78;4189649;28;20139;-71
2022/05/21 02:28:00;;;;;;;;;;;;;;;12.40;79.80;98848.34;4188792;28;20444;-71
2022/05/21 02:30:01;;;;;;;4.05;2.58;;;;;;;12.37;80.40;98841.59;4186910;28;19911;-71
2022/05/21 02:32:01;;;;;;;3.50;2.60;;;;;;;12.35;80.65;98847.53;4190664;28;20371;-71
2022/05/21 02:34:02;;;;;;;3.58;2.85;;;;;;;12.36;80.33;98846.34;4188153;28;20025;-71
2022/05/21 02:36:03;;;;;;;3.00;2.70;;;;;;;12.34;80.56;98848.72;4188443;28;20020;-71
2022/05/21 02:40:23;;;;;;;5.32;3.47;;;;;;;12.35;80.74;98847.53;4187990;28;20130;-71
2022/05/21 02:44:43;;;;;;;5.00;3.03;;;;;;;12.30;80.48;98852.63;4190089;28;20384;-71
2022/05/21 02:46:43;;;;;;;4.63;3.00;;;;;;;12.27;80.87;98858.94;4188162;28;20041;-71
2022/05/21 02:48:44;;;;;;;4.25;3.20;;;;;;;12.21;80.23;98855.69;4187376;28;20116;-71
2022/05/21 02:50:44;;;;;;;3.88;2.80;;;;;;;12.26;79.80;98868.44;4187791;28;20391;-71
2022/05/21 02:52:45;;;;;;;4.25;3.10;;;;;;;12.24;79.73;98868.00;4187698;28;20040;-71
2022/05/21 02:54:45;;;;;;;5.95;3.15;;;;;;;12.27;79.40;98864.47;4187662;28;20067;-71
2022/05/21 02:56:49;;;;;;;4.05;3.35;;;;;;;12.22;79.63;98870.34;4189815;28;20033;-71
2022/05/21 02:58:49;;;;;;;4.75;3.72;;;;;;;12.14;79.93;98874.22;4189209;28;20039;-71
2022/05/21 03:00:50;;;;;;;4.78;3.30;;;;;;;12.14;80.00;98880.56;4189847;28;20033;-71
2022/05/21 03:02:51;;;;;;;4.88;3.15;;;;;;;12.13;80.01;98884.53;4187712;28;20090;-71
2022/05/21 03:04:51;;;;;;;6.38;3.35;;;;;;;12.06;80.44;98885.22;4187612;28;20036;-71
2022/05/21 03:06:52;;;;;;;5.22;3.60;;;;;;;11.99;80.20;98885.16;4186494;28;20029;-71
2022/05/21 03:11:13;;;;;;;6.47;3.28;;;;;;;12.07;78.73;98888.81;4187132;28;20171;-71
2022/05/21 03:13:13;;;;;;;5.72;3.80;;;;;;;12.01;78.62;98893.91;4187591;28;20052;-71
2022/05/21 03:15:14;;;;;;;5.45;3.30;;;;;;;11.95;79.37;98887.09;4188276;28;20028;-71
2022/05/21 03:17:14;;;;;;;4.82;3.42;;;;;;;11.92;79.83;98885.09;4186884;28;20024;-71
2022/05/21 03:19:15;;;;;;;3.72;3.28;;;;;;;11.81;79.84;98892.44;4186875;28;20577;-71
2022/05/21 03:21:15;;;;;;;6.68;3.58;;;;;;;11.80;79.23;98888.88;4186828;28;20025;-71
2022/05/21 03:23:15;;;;;;;7.70;3.47;;;;;;;11.77;78.76;98892.38;4187230;28;20107;-71
2022/05/21 03:25:16;;;;;;;3.95;3.17;;;;;;;11.67;79.33;98898.59;4187356;28;20035;-71
2022/05/21 03:27:17;;;;;;;7.05;4.85;;;;;;;11.59;79.38;98902.44;4189158;28;20035;-71
2022/05/21 03:29:17;;;;;;;6.07;3.38;;;;;;;11.58;79.71;98905.56;4187925;28;20115;-71
2022/05/21 03:31:17;;;;;;;7.95;3.20;;;;;;;11.55;80.07;98912.66;4188367;28;20435;-71
2022/05/21 03:33:18;;;;;;;4.97;3.17;;;;;;;11.48;80.47;98909.78;4187699;28;20024;-71
2022/05/21 03:35:19;;;;;;;3.30;2.83;;;;;;;11.50;78.88;98908.25;4191302;28;20611;-71
2022/05/21 03:37:19;;;;;;;4.90;2.80;;;;;;;11.51;77.76;98920.13;4187695;28;20181;-71
2022/05/21 03:39:20;;;;;;;4.85;2.78;;;;;;;11.44;77.56;98926.34;4187799;28;20063;-71
2022/05/21 03:41:20;;;;;;;3.42;2.83;;;;;;;11.40;77.99;98916.38;4190433;28;20488;-71
2022/05/21 03:43:20;;;;;;;3.85;3.30;;;;;;;11.36;76.85;98927.41;4187338;28;20029;-71
2022/05/21 03:45:22;;;;;;;6.28;3.28;;;;;;;11.29;77.25;98921.75;4186943;28;20512;-71
2022/05/21 03:47:22;;;;;;;4.22;3.40;;;;;;;11.15;77.40;98924.28;4187276;28;20063;-71
2022/05/21 03:49:23;;;;;;;9.85;3.88;;;;;;;11.11;77.59;98923.47;4200296;28;20059;-71
2022/05/21 03:51:23;;;;;;;4.82;3.28;;;;;;;11.10;77.92;98927.41;4200818;28;20054;-71
2022/05/21 03:53:23;;;;;;;5.28;3.58;;;;;;;11.03;77.33;98936.38;4199617;28;20028;-71
2022/05/21 03:55:24;;;;;;;3.85;2.90;;;;;;;11.01;76.84;98941.50;4187239;28;20649;-71
2022/05/21 03:57:24;;;;;;;4.32;3.58;;;;;;;10.94;77.43;98930.28;4186809;28;20089;-71
2022/05/21 03:59:25;;;;;;;5.20;3.95;;;;;;;10.83;77.23;98940.38;4187037;28;20744;-71
2022/05/21 04:01:25;;;;;;;5.35;4.03;;;;;;;10.86;77.20;98942.41;4186585;28;20599;-71
2022/05/21 04:03:26;;;;;;;5.72;3.67;;;;;;;10.79;76.77;98953.34;4187215;28;20409;-71
2022/05/21 04:05:26;;;;;;;3.92;3.22;;;;;;;10.71;77.79;98952.41;4187139;28;20183;-71
2022/05/21 04:07:26;;;;;;;4.30;3.60;;;;;;;10.74;77.79;98965.50;4187345;28;20030;-71
2022/05/21 04:09:28;;;;;;;6.90;4.00;;;;;;;10.66;78.65;98964.56;4186370;28;20038;-71
2022/05/21 04:11:29;;;;;;;4.75;3.85;;;;;;;10.64;79.39;98971.66;4195558;28;20060;-71
2022/05/21 04:13:29;;;;;;;4.85;3.40;;;;;;;10.64;79.43;98978.00;4194722;28;20090;-71
2022/05/21 04:15:30;;;;;;;5.47;4.28;;;;;;;10.66;79.94;98974.84;4188278;28;20364;-71
2022/05/21 04:17:30;;;;;;;5.15;4.35;;;;;;;10.62;80.28;98969.25;4187103;28;20294;-71
2022/05/21 04:19:31;;;;;;;5.88;4.50;;;;;;;10.63;78.80;98967.28;4189123;28;20055;-71
2022/05/21 04:21:31;;;;;;;5.15;4.65;;;;;;;10.62;79.57;98971.22;4202119;28;20133;-71
2022/05/21 04:23:32;;;;;;;6.22;4.82;;;;;;;10.60;79.38;98954.19;4186304;28;20028;-71
2022/05/21 04:25:32;;;;;;;6.57;4.55;;;;;;;10.56;79.76;98969.91;4186672;28;20039;-71
2022/05/21 04:27:34;;;;;;;5.32;4.45;;;;;;;10.54;79.46;98970.28;4198129;28;20468;-71
2022/05/21 04:29:35;;;;;;;7.82;5.18;;;;;;;10.56;80.16;98972.69;4196090;28;20037;-71
2022/05/21 04:31:36;;;;;;;6.60;4.72;;;;;;;10.57;79.93;98965.97;4186829;28;20031;-71
2022/05/21 04:33:37;;;;;;;7.68;5.13;;;;;;;10.57;80.01;98969.53;4187005;28;20040;-71
2022/05/21 04:37:56;;;;;;;8.07;4.75;;;;;;;10.58;79.63;98981.41;4186667;28;20105;-71
2022/05/21 04:39:56;;;;;;;7.50;5.18;;;;;;;10.61;79.70;98984.25;4195896;28;20024;-71
2022/05/21 04:42:00;;;;;;;7.43;5.22;;;;;;;10.61;79.27;98992.56;4201310;28;20362;-71
2022/05/21 04:44:02;;;;;;;5.25;4.70;;;;;;;10.64;79.55;98988.25;4186367;28;20112;-71
2022/05/21 04:46:03;;;;;;;6.75;4.90;;;;;;;10.72;78.87;98994.72;4186475;28;20024;-71
2022/05/21 04:48:05;;;;;;;7.10;5.22;;;;;;;10.73;79.36;98993.56;4192853;28;20059;-71
2022/05/21 04:50:07;;;;;;;6.03;4.50;;;;;;;10.78;78.20;98998.81;4186129;28;20555;-71
2022/05/21 04:52:07;;;;;;;6.17;4.47;;;;;;;10.80;78.30;99000.03;4185972;28;20032;-71
2022/05/21 04:54:08;;;;;;;5.72;4.70;;;;;;;10.81;78.05;98998.88;4186784;28;20027;-71
2022/05/21 04:56:08;;;;;;;5.40;4.70;;;;;;;10.80;78.20;99000.03;4186489;28;20029;-71
2022/05/21 04:58:09;;;;;;;5.95;4.05;;;;;;;10.83;77.81;99006.78;4185883;28;20522;-71
2022/05/21 05:00:09;;;;;;;5.00;4.30;;;;;;;10.90;77.69;99018.00;4185851;28;20135;-71
2022/05/21 05:02:10;;;;;;;7.90;4.35;;;;;;;10.89;77.21;99008.91;4188103;28;20098;-71
2022/05/21 05:04:10;;;;;;;8.40;4.30;;;;;;;10.86;78.09;99017.16;4202666;28;20028;-71
2022/05/21 05:06:10;;;;;;;7.05;4.55;;;;;;;10.91;78.34;99022.38;4187529;28;20369;-71
2022/05/21 05:08:13;;;;;;;6.05;4.18;;;;;;;10.90;77.97;99023.53;4185783;28;20167;-71
2022/05/21 05:10:13;;;;;;;4.68;3.90;;;;;;;10.95;76.59;99017.72;4186110;28;20024;-71
2022/05/21 05:12:14;;;;;;;8.90;4.80;;;;;;;11.00;77.00;99024.91;4195898;28;20032;-71
2022/05/21 05:14:14;;;;;;;5.25;4.50;;;;;;;11.01;76.42;99010.72;4201249;28;20427;-71
2022/05/21 05:16:14;;;;;;;6.15;5.10;;;;;;;11.05;76.34;99025.41;4199411;28;20500;-71
2022/05/21 05:18:21;;;;;;;5.78;4.40;;;;;;;11.04;76.31;99028.56;4188096;28;20703;-71
2022/05/21 05:20:22;;;;;;;6.43;4.50;;;;;;;11.05;77.51;99019.06;4192333;28;20458;-71
2022/05/21 05:22:23;;;;;;;6.88;4.55;;;;;;;11.13;75.42;99023.56;4189408;28;20052;-71
2022/05/21 05:24:24;;;;;;;6.50;4.85;;;;;;;11.13;76.22;99024.38;4186170;28;20036;-71
2022/05/21 05:26:25;;;;;;;8.02;5.13;;;;;;;11.17;76.56;99016.94;4185988;28;20209;-71
2022/05/21 05:28:27;;;;;;;7.63;4.97;;;;;;;11.19;76.17;99020.13;4185389;28;20025;-71
2022/05/21 05:30:28;;;;;;;6.70;4.90;;;;;;;11.21;75.67;99023.31;4190705;28;20036;-71
2022/05/21 05:32:28;;;;;;;5.30;4.55;;;;;;;11.16;75.52;99015.31;4189124;28;20588;-71
2022/05/21 05:34:28;;;;;;;5.72;4.65;;;;;;;11.18;75.79;99018.53;4185314;28;20024;-71
2022/05/21 05:36:29;;;;;;;8.35;5.35;;;;;;;11.20;76.13;99018.97;4189366;28;20066;-71
2022/05/21 05:38:29;;;;;;;6.90;4.85;;;;;;;11.23;75.44;99003.56;4184608;28;20365;-71
2022/05/21 05:40:32;;;;;;;7.03;5.05;;;;;;;11.42;75.40;99019.31;4156464;28;20025;-71
2022/05/21 05:42:35;;;;;;;5.78;4.85;;;;;;;11.57;74.33;99014.81;4138020;27;20083;-71
2022/05/21 05:44:35;;;;;;;7.15;4.82;;;;;;;11.71;74.07;99013.06;4185841;28;20369;-71
2022/05/21 05:46:36;;;;;;;6.20;4.60;;;;;;;11.81;74.38;99003.34;4197862;28;20034;-71
2022/05/21 05:48:36;;;;;;;10.48;4.82;;;;;;;11.92;73.52;99009.84;4200379;28;20538;-71
2022/05/21 05:50:37;;;;;;;7.03;5.07;;;;;;;11.96;72.74;99007.91;4201189;28;20032;-71
2022/05/21 05:52:37;;;;;;;5.75;4.78;;;;;;;12.07;73.70;99003.31;4200706;28;20035;-71
2022/05/21 05:54:38;;;;;;;5.00;4.20;;;;;;;12.18;73.51;99006.25;4192708;28;20071;-71
2022/05/21 05:56:42;;;;;;;5.47;4.03;;;;;;;12.25;72.46;99002.78;4187503;28;20460;-71
2022/05/21 06:01:02;;;;;;;4.40;3.80;;;;;;;12.26;71.90;99010.72;4192098;28;20035;-71
2022/05/21 06:03:02;;;;;;;4.28;3.88;;;;;;;12.16;72.11;99005.81;4186107;28;20107;-71
2022/05/21 06:05:04;;;;;;;5.25;3.58;;;;;;;12.22;71.95;99000.75;4197059;28;20036;-71
2022/05/21 06:07:05;;;;;;;4.82;4.15;;;;;;;12.21;71.67;99002.72;4185841;28;20427;-71
2022/05/21 06:09:06;;;;;;;4.97;4.22;;;;;;;12.31;71.53;99002.06;4185214;28;20360;-70
2022/05/21 06:11:06;;;;;;;4.72;3.63;;;;;;;12.28;71.75;99004.78;4185405;28;20085;-70
2022/05/21 06:13:07;;;;;;;5.15;3.50;;;;;;;12.33;70.94;98990.59;4185809;28;20120;-71
2022/05/21 06:15:09;;;;;;;4.07;3.63;;;;;;;12.33;72.13;99002.50;4189058;28;20035;-71
2022/05/21 06:17:09;;;;;;;5.28;3.95;;;;;;;12.22;72.89;99004.31;4185792;28;20064;-71
2022/05/21 06:19:10;;;;;;;4.72;4.13;;;;;;;12.18;73.15;98995.16;4184969;28;20562;-71
2022/05/21 06:21:11;;;;;;;6.05;3.88;;;;;;;12.22;72.92;98993.22;4187785;28;20116;-71
2022/05/21 06:23:12;;;;;;;6.13;3.95;;;;;;;12.31;73.88;99009.56;4190222;28;20032;-71
2022/05/21 06:25:17;;;;;;;5.55;3.95;;;;;;;12.42;73.85;98991.09;4188415;28;20032;-71
2022/05/21 06:27:18;;;;;;;8.60;4.32;;;;;;;12.58;72.71;98988.13;4187397;28;20044;-71
2022/05/21 06:29:18;;;;;;;5.43;3.38;;;;;;;12.75;71.26;98995.06;4188047;28;20151;-71
2022/05/21 06:31:18;;;;;;;6.25;3.78;;;;;;;12.98;72.38;99000.44;4190686;28;20388;-71
2022/05/21 06:33:22;;;;;;;5.07;4.47;;;;;;;13.12;70.38;98989.47;4188829;28;20025;-71
2022/05/21 06:35:23;;;;;;;6.45;4.53;;;;;;;13.20;70.51;98991.16;4188123;28;20499;-71
2022/05/21 06:37:23;;;;;;;5.28;3.80;;;;;;;13.32;70.56;98990.88;4186909;28;20036;-71
2022/05/21 06:39:23;;;;;;;4.55;3.78;;;;;;;13.42;69.14;98995.72;4185584;28;20485;-71
2022/05/21 06:41:23;;;;;;;4.95;4.10;;;;;;;13.44;68.36;98992.56;4190929;28;20055;-71
2022/05/21 06:43:24;;;;;;;7.75;4.30;;;;;;;13.52;68.68;99001.75;4195058;28;20028;-71
2022/05/21 06:45:25;;;;;;;5.93;3.97;;;;;;;13.62;68.82;98993.50;4192706;28;20047;-71
2022/05/21 06:47:26;;;;;;;6.10;4.25;;;;;;;13.67;67.98;98987.59;4188219;28;20115;-71
2022/05/21 06:49:27;;;;;;;6.30;4.47;;;;;;;13.75;68.11;98994.78;4187683;28;20060;-71
2022/05/21 06:51:27;;;;;;;6.18;4.07;;;;;;;13.82;68.41;98994.06;4187992;28;20386;-71
2022/05/21 06:53:27;;;;;;;5.53;4.10;;;;;;;13.93;67.11;98983.78;4203439;28;20063;-71
2022/05/21 06:55:27;;;;;;;4.65;3.60;;;;;;;14.00;67.29;98996.94;4189653;28;20024;-71
2022/05/21 06:57:28;;;;;;;5.32;4.00;;;;;;;14.05;66.03;98991.00;4188647;28;20039;-71
2022/05/21 06:59:28;;;;;;;5.25;3.85;;;;;;;14.13;66.93;98986.25;4193925;28;20043;-71
2022/05/21 07:01:29;;;;;;;6.63;4.70;;;;;;;14.15;66.10;98992.22;4187629;28;20090;-71
2022/05/21 07:03:29;;;;;;;5.50;4.13;;;;;;;14.27;67.56;98986.34;4187268;28;20020;-71
2022/05/21 07:07:48;;;;;;;6.25;4.55;;;;;;;14.31;65.16;98995.50;4193191;28;20117;-71
2022/05/21 07:09:49;;;;;;;5.03;3.85;;;;;;;14.41;66.42;99003.13;4185784;28;20036;-71
2022/05/21 07:11:51;;;;;;;5.13;3.92;;;;;;;14.56;65.86;99002.03;4185648;28;20039;-71
2022/05/21 07:13:51;;;;;;;4.82;4.13;;;;;;;14.66;65.44;98991.31;4187434;28;20051;-71
2022/05/21 07:15:54;;;;;;;4.13;3.72;;;;;;;14.72;65.50;98986.94;4188081;28;20036;-71
2022/05/21 07:18:00;;;;;;;6.15;3.90;;;;;;;14.85;63.72;98999.31;4186683;28;20024;-71
2022/05/21 07:20:08;;;;;;;6.15;4.03;;;;;;;14.74;64.58;98998.50;4186723;28;20067;-71
2022/05/21 07:22:09;;;;;;;7.30;3.65;;;;;;;14.80;66.33;98997.69;4187076;28;20028;-71
2022/05/21 07:24:10;;;;;;;4.00;3.53;;;;;;;14.84;64.87;99003.31;4194123;28;20071;-71
2022/05/21 07:26:12;;;;;;;6.25;4.30;;;;;;;14.81;63.32;99007.69;4190000;28;20460;-71
2022/05/21 07:28:13;;;;;;;6.88;4.00;;;;;;;14.81;63.19;99007.69;4187826;28;20032;-71
2022/05/21 07:30:14;;;;;;;5.13;3.50;;;;;;;14.74;63.73;99009.66;4187642;28;20029;-71
2022/05/21 07:32:20;;;;;;;3.38;2.83;;;;;;;14.76;64.18;99007.25;4187893;28;20024;-71
2022/05/21 07:34:21;;;;;;;4.55;3.58;;;;;;;14.86;65.55;99003.69;4189392;28;20239;-71
2022/05/21 07:36:21;;;;;;;2.35;2.10;;;;;;;15.00;65.29;99014.09;4189771;28;20024;-71
2022/05/21 07:38:23;;;;;;;4.63;2.22;;;;;;;15.15;63.96;99035.22;4186751;28;20435;-71
2022/05/21 07:40:24;;;;;;;4.88;1.90;;;;;;;14.85;63.04;99019.63;4186955;28;20531;-71
2022/05/21 07:42:25;;;;;;;2.90;1.80;;;;;;;14.38;63.63;99017.00;4187999;28;20260;-71
2022/05/21 07:44:25;;;;;;;5.70;2.10;;;;;;;14.40;64.88;99017.41;4188307;28;20020;-71
2022/05/21 07:46:25;;;;;;;3.40;1.95;;;;;;;14.20;65.20;99009.38;4189680;28;20025;-71
2022/05/21 07:48:27;;;;;;;3.35;1.95;;;;;;;13.91;65.16;99010.41;4188256;28;20303;-71
2022/05/21 07:50:27;;;;;;;2.77;1.70;;;;;;;13.95;66.16;99017.56;4187407;28;20020;-71
2022/05/21 07:52:29;;;;;;;3.67;2.25;;;;;;;14.03;66.77;99019.22;4186311;28;20034;-71
2022/05/21 07:54:29;;;;;;;3.13;2.20;;;;;;;14.10;66.98;99023.22;4186615;28;20025;-71
2022/05/21 07:56:30;;;;;;;4.10;2.10;;;;;;;14.24;66.39;99012.19;4188737;28;20028;-71
2022/05/21 07:58:31;;;;;;;3.75;2.20;;;;;;;14.31;66.84;99010.25;4185481;28;20365;-71
2022/05/21 08:00:31;;;;;;;5.10;2.30;;;;;;;14.39;66.58;99026.94;4186186;28;20021;-71
2022/05/21 08:02:32;;;;;;;4.88;2.60;;;;;;;14.53;67.29;99024.28;4186747;28;20427;-71
2022/05/21 08:04:35;;;;;;;4.28;2.42;;;;;;;14.67;66.61;99021.56;4188205;28;20035;-71
2022/05/21 08:06:35;;;;;;;4.53;2.03;;;;;;;14.84;66.54;99020.00;4186275;28;20039;-71
2022/05/21 08:08:35;;;;;;;3.35;1.80;;;;;;;15.01;66.01;99021.25;4186235;28;20028;-71
2022/05/21 08:10:38;;;;;;;4.18;1.85;;;;;;;15.02;63.99;99014.47;4188515;28;20021;-71
2022/05/21 08:12:39;;;;;;;3.78;2.00;;;;;;;15.03;64.67;99016.06;4186920;28;20032;-71
2022/05/21 08:14:41;;;;;;;3.58;1.90;;;;;;;14.97;64.68;99034.38;4186095;28;20036;-71
2022/05/21 08:16:42;;;;;;;4.72;1.90;;;;;;;14.92;64.41;99021.63;4185931;28;20059;-71
2022/05/21 08:18:42;;;;;;;4.75;2.20;;;;;;;15.02;64.31;99014.47;4186717;28;20032;-71
2022/05/21 08:20:42;;;;;;;5.47;2.28;;;;;;;15.15;64.92;99013.72;4185050;28;20033;-71
2022/05/21 08:27:21;;;;;;;7.63;2.10;;;;;;;15.49;63.59;99010.56;4187698;28;20086;-71
2022/05/21 08:29:42;;;;;;;2.88;2.00;;;;;;;15.55;64.05;99011.75;4186208;28;20422;-71
2022/05/21 08:31:42;;;;;;;2.28;1.60;;;;;;;15.22;63.81;99014.91;4188334;28;20108;-71
2022/05/21 08:33:43;;;;;;;3.08;2.13;;;;;;;15.14;64.64;99002.94;4185800;28;20111;-71
2022/05/21 08:35:44;;;;;;;4.22;1.83;;;;;;;15.05;66.21;99008.91;4185083;28;20029;-71
2022/05/21 08:37:45;;;;;;;3.63;2.17;;;;;;;14.98;66.86;99014.50;4187784;28;20035;-71
2022/05/21 08:39:45;;;;;;;3.65;2.25;;;;;;;15.01;64.82;99012.91;4188642;28;20028;-71
2022/05/21 08:41:49;;;;;;;2.95;1.60;;;;;;;15.30;65.24;99005.34;4186257;28;20144;-71
2022/05/21 08:43:55;;;;;;;5.55;2.13;;;;;;;15.45;67.06;99015.34;4185378;28;20051;-71
2022/05/21 08:46:33;;;;;;;4.63;1.85;;;;;;;15.55;62.63;99011.75;4188261;28;20111;-71
2022/05/21 08:48:35;;;;;;;4.82;1.70;;;;;;;15.40;62.27;99010.16;4186673;28;20297;-71
2022/05/21 08:50:41;;;;;;;1.88;1.48;;;;;;;15.39;63.43;99006.59;4187740;28;20021;-71
2022/05/21 08:52:57;;;;;;;1.52;1.38;;;;;;;15.45;62.56;99002.19;4186202;28;20036;-71
2022/05/21 08:55:00;;;;;;;2.95;1.50;;;;;;;15.58;62.37;98994.22;4185536;28;20035;-71
2022/05/21 08:57:02;;;;;;;3.25;2.15;;;;;;;15.61;61.92;99009.38;4186491;28;20472;-71
2022/05/21 08:59:04;;;;;;;;;;;;;;;15.51;60.96;98999.00;4186246;28;20107;-71
2022/05/21 09:01:04;;;;;;;3.22;1.48;;;;;;;15.20;63.01;98990.22;4184904;28;19915;-71
2022/05/21 09:03:08;;;;;;;4.05;2.42;;;;;;;15.34;65.53;98993.03;4189859;28;20060;-71
2022/05/21 09:05:13;;;;;;;2.90;1.40;;;;;;;15.42;62.25;98993.84;4186312;28;20380;-71
2022/05/21 09:07:27;;;;;;;2.08;1.33;;;;;;;15.48;62.34;98995.03;4192600;28;20055;-71
2022/05/21 09:09:48;;;;;;;2.88;1.40;;;;;;;15.73;62.32;98987.47;4186687;28;20423;-71
2022/05/21 09:12:21;;;;;;;2.15;1.25;;;;;;;16.12;64.59;99002.53;4195667;28;20028;-71
2022/05/21 09:14:24;;;;;;;;;;;;;;;16.29;62.02;98998.91;4201966;28;20035;-71
2022/05/21 09:18:44;;;;;;;3.35;1.35;;;;;;;16.59;60.08;98990.03;4194021;28;20047;-71
2022/05/21 09:20:59;;;;;;;2.35;1.27;;;;;;;16.64;60.64;98989.63;4188587;28;20045;-71
2022/05/21 09:23:02;;;;;;;3.85;1.05;;;;;;;16.70;58.95;98987.19;4187360;28;20039;-71
2022/05/21 09:25:17;;;;;;;3.38;1.30;;;;;;;16.63;59.11;98976.03;4189098;28;20146;-71
2022/05/21 09:27:44;;;;;;;3.75;1.55;;;;;;;16.64;59.88;98978.44;4185851;28;20036;-71
2022/05/21 09:29:45;;;;;;;3.83;1.13;;;;;;;16.81;60.57;98980.38;4185231;28;20128;-71
2022/05/21 09:31:45;;;;;;;1.58;1.00;;;;;;;16.87;59.51;98979.91;4185860;28;20199;-71
2022/05/21 09:33:47;;;;;;;1.52;1.08;;;;;;;16.92;59.18;98969.13;4186045;28;20036;-71
2022/05/21 09:35:59;;;;;;;3.58;1.30;;;;;;;16.94;57.81;98980.69;4185836;28;20372;-71
2022/05/21 09:38:14;;;;;;;2.67;1.40;;;;;;;17.01;58.00;98977.06;4186412;28;20044;-71
2022/05/21 09:40:25;;;;;;;5.32;1.75;;;;;;;17.08;57.42;98974.22;4195545;28;20041;-71
2022/05/21 09:47:21;;;;;;;4.45;1.30;;;;;;;17.05;56.50;98973.03;4186031;28;20363;-71
2022/05/21 09:49:21;;;;;;;2.67;1.40;;;;;;;17.09;56.72;98976.59;4186939;28;20383;-71
2022/05/21 09:51:29;;;;;;;4.80;1.80;;;;;;;17.03;57.61;98988.63;4201825;28;20053;-71
2022/05/21 09:53:29;;;;;;;2.83;1.40;;;;;;;17.04;56.84;98988.19;4186378;28;20032;-71
2022/05/21 09:55:30;;;;;;;3.30;1.30;;;;;;;17.06;56.28;98988.59;4189449;28;20047;-71
2022/05/21 09:57:33;;;;;;;3.50;1.27;;;;;;;17.20;56.29;98984.09;4188981;28;20032;-71
2022/05/21 09:59:33;;;;;;;2.45;1.40;;;;;;;17.19;57.47;98983.31;4188247;28;20358;-71
2022/05/21 10:01:44;;;;;;;2.33;1.33;;;;;;;17.24;57.82;98996.88;4188564;28;20107;-71
2022/05/21 10:03:53;;;;;;;4.85;1.77;;;;;;;17.38;57.34;98985.59;4195103;28;20584;-71
2022/05/21 10:05:54;;;;;;;2.08;1.30;;;;;;;17.38;55.63;98984.78;4197234;28;20040;-71